Thursday, January 17, 2019, 6:59 PM MST
Back to Local

KSLC, Salt Lake City International Airport

Location: Salt Lake City, UT, United States Lat: 40.783
Local Time: 6:59 PM MST ( 1:59 GMT) Lon: -111.967
Time Zone: US/Mountain Elev: 4225 ft

Show me the last for .
Show Decoded

2019-01-17 18:13 METAR KSLC 180113Z 10008KT 9SM -RA SCT024 OVC040 03/M01 A2986 RMK AO2 P0000
                 T00331006 =
2019-01-17 17:54 METAR KSLC 180054Z 12006KT 7SM -RA SCT012 BKN025 OVC038 03/M02 A2987 RMK AO2
                 RAB26 SLP109 P0002 T00331017 =
2019-01-17 16:54 METAR KSLC 172354Z 18006KT 10SM SCT070 BKN085 OVC110 03/M01 A2989 RMK AO2 LTG
                 DSNT W RAE26 SLP114 CB DSNT SW-W BINOVC P0003 60046 T00331006 10078 20028 58014
                 =
2019-01-17 16:29 METAR KSLC 172329Z 14009KT 10SM SCT022 BKN085 OVC110 03/M02 A2990 RMK AO2 RAE26
                 CIG 055 NW RNWY TCU DSNT E AND W P0003 T00281022 =
2019-01-17 15:54 METAR KSLC 172254Z 12012KT 5SM RA BKN015 OVC020 03/M03 A2993 RMK AO2 WSHFT 2231
                 SLP131 P0018 T00331028 =
2019-01-17 15:51 METAR KSLC 172251Z 13009KT 5SM RA BKN012 OVC020 03/M01 A2993 RMK AO2 WSHFT 2231
                 P0017 =
2019-01-17 15:23 METAR KSLC 172223Z 26005KT 5SM RA BKN012 BKN018 OVC023 04/M03 A2994 RMK AO2
                 P0012 T00391028 =
2019-01-17 15:01 METAR KSLC 172201Z 17007KT 4SM RA SCT013 BKN018 OVC027 04/M02 A2994 RMK AO2
                 P0003 T00441017 =
2019-01-17 14:54 METAR KSLC 172154Z 18006KT 2SM RA FEW015 OVC022 04/M02 A2993 RMK AO2 SFC VIS 4
                 SLP130 P0021 T00441017 =
2019-01-17 14:38 METAR KSLC 172138Z 23009KT 2SM +RA OVC024 04/M02 A2993 RMK AO2 SFC VIS 3 P0013
                 T00441022 =
2019-01-17 14:27 METAR KSLC 172127Z 23015G21KT 4SM RA OVC028 05/M02 A2992 RMK AO2 PRESRR P0010
                 T00501017 =
2019-01-17 13:54 METAR KSLC 172054Z 22010KT 6SM -RA FEW027 OVC035 05/M02 A2988 RMK AO2 PK WND
                 17026/2000 SLP113 P0003 60004 T00501017 55015 =
2019-01-17 12:54 METAR KSLC 171954Z 17013G23KT 10SM -RA FEW035 BKN060 OVC080 07/M01 A2987 RMK AO2
                 PK WND 17029/1855 RAE09B29 SLP106 VIRGA P0000 T00671011 =
2019-01-17 11:54 METAR KSLC 171854Z 16022G27KT 10SM -RA BKN046 OVC070 07/00 A2991 RMK AO2 PK WND
                 16027/1852 RAB1757 SLP120 VIRGA P0001 T00670000 =
2019-01-17 10:54 METAR KSLC 171754Z 16018G26KT 10SM FEW055 BKN080 OVC100 08/00 A2993 RMK AO2 PK
                 WND 16026/1750 SLP127 VIRGA SH DSNT SE-S T00780000 10078 20056 55003 =
2019-01-17 09:54 METAR KSLC 171654Z 16015KT 10SM FEW050 SCT070 BKN090 OVC130 07/M01 A2992 RMK AO2
                 SLP121 SH DSNT SE T00721006 =
2019-01-17 08:54 METAR KSLC 171554Z 16015G22KT 10SM FEW055 SCT070 BKN085 BKN140 07/00 A2989 RMK
                 AO2 PRESFR SLP118 VIRGA SH DSNT SE T00720000 =
2019-01-17 07:54 METAR KSLC 171454Z 13009KT 10SM FEW055 BKN090 BKN110 BKN180 06/00 A2994 RMK AO2
                 PK WND 15026/1356 SLP138 VIRGA ACSL DSNT SE T00610000 56013 =
2019-01-17 06:54 METAR KSLC 171354Z 16019G23KT 10SM BKN090 BKN100 BKN150 07/00 A2995 RMK AO2
                 SLP139 T00670000 =
2019-01-17 05:54 METAR KSLC 171254Z 15010G20KT 10SM BKN080 BKN090 OVC110 07/00 A2997 RMK AO2
                 SLP138 T00670000 =
2019-01-17 04:54 METAR KSLC 171154Z 17016KT 10SM FEW080 SCT110 BKN150 06/M01 A2999 RMK AO2 SLP147
                 70002 T00611006 10067 20050 58009 =
2019-01-17 03:54 METAR KSLC 171054Z 17011KT 10SM BKN120 BKN150 06/M01 A3001 RMK AO2 SLP158
                 T00611006 =
2019-01-17 02:54 METAR KSLC 170954Z 17011KT 10SM FEW060 SCT120 BKN150 06/00 A3004 RMK AO2 SLP165
                 T00610000 =
2019-01-17 01:54 METAR KSLC 170854Z 16013KT 10SM FEW060 BKN120 BKN150 06/00 A3002 RMK AO2 SLP159
                 T00610000 58025 =
2019-01-17 00:54 METAR KSLC 170754Z 16014G20KT 10SM FEW060 FEW100 SCT160 06/00 A3006 RMK AO2 PK
                 WND 17026/0740 SLP175 T00610000 =
2019-01-16 23:54 METAR KSLC 170654Z 13010KT 10SM FEW080 FEW120 BKN160 05/00 A3007 RMK AO2 SLP184
                 T00500000 400671022 =
2019-01-16 22:54 METAR KSLC 170554Z 16008KT 10SM FEW080 SCT110 BKN160 06/01 A3010 RMK AO2 SLP195
                 T00560006 10067 20006 58010 =
2019-01-16 21:54 METAR KSLC 170454Z 16006KT 9SM SCT065 BKN085 06/01 A3012 RMK AO2 SLP202
                 T00560006 =
2019-01-16 20:54 METAR KSLC 170354Z 35004KT 8SM SCT060 BKN080 01/M01 A3013 RMK AO2 SLP214
                 T00111006 =
2019-01-16 19:54 METAR KSLC 170254Z 32005KT 8SM SCT065 BKN085 01/M01 A3013 RMK AO2 SLP217
                 T00111006 53009 =

Support USWX by starting your Amazon purchase here.